Weather observations for the past three days for
Jasper Walker County Airport & Bevill Field
Metric (Imperial)
Date Time (cdt) Wind (kph) Vis. (km) Weather Sky Cond. Temperature (ºC) Relative Humidity Wind Chill (°C) Heat Index (°C) Pressure Precipitation (cm)
Air Dwpt 6 hour altimeter (cm) sea level (mb) 1 hr 3 hr 6 hr
Max. Min.
10 17:35 Calm 16.09 Fair CLR 26 16 54% 27 76.23 0.0
10 17:15 Calm 16.09 Fair CLR 26 16 54% 27 76.23 0.0
10 16:55 Calm 16.09 Fair CLR 27 12 39% 27 76.23 0.0
10 16:35 Calm 16.09 Fair CLR 28 12 37% 27 76.23 0.0
10 16:15 Vrbl 11 16.09 Fair CLR 28 13 40% 28 76.25 0.0
10 15:55 Calm 16.09 Fair CLR 28 12 37% 27 76.25 0.0
10 15:35 Calm 16.09 Fair CLR 28 11 35% 27 76.25 0.0
10 15:15 E 13 16.09 Fair CLR 28 12 37% 27 76.28 0.0
10 14:55 E 9 16.09 Fair CLR 28 12 37% 27 76.28 0.0
10 14:35 Vrbl 9 16.09 Fair CLR 28 13 40% 28 76.28 0.0
10 14:15 Vrbl 7 16.09 Fair CLR 27 13 42% 27 76.28 0.0
10 13:55 Vrbl 7 16.09 Fair CLR 27 12 39% 27 76.3 0.0
10 13:35 Calm 16.09 Fair CLR 27 13 42% 27 76.3 0.0
10 13:15 Vrbl 7 16.09 Fair CLR 26 14 48% 26 76.33 0.0
10 12:55 SE 7 16.09 Fair CLR 26 14 48% 26 76.33 0.0
10 12:35 Calm 16.09 A Few Clouds FEW038 FEW045 26 15 51% 27 76.35 0.0
10 12:15 Calm 16.09 Partly Cloudy FEW033 SCT039 SCT045 25 16 57% 26 76.38 0.0
10 11:55 Vrbl 7 16.09 Partly Cloudy SCT028 SCT034 25 17 61% 26 76.38 0.0
10 11:35 Calm 16.09 A Few Clouds FEW027 25 18 65% 26 76.38 0.0
10 11:15 Calm 16.09 Fair CLR 23 17 69% 76.4 0.0
10 10:55 Vrbl 7 16.09 A Few Clouds FEW020 23 17 69% 76.4 0.0
10 10:35 Calm 16.09 Partly Cloudy SCT017 22 17 73% 76.4 0.0
10 10:15 Vrbl 6 16.09 Overcast OVC016 22 18 78% 76.38 0.0
10 09:55 Calm 16.09 Overcast OVC015 21 18 83% 76.38 0.0
10 09:35 Vrbl 9 16.09 Overcast OVC012 20 18 88% 76.4 0.0
10 09:15 Vrbl 6 16.09 Overcast BKN008 OVC012 20 18 88% 76.4 0.0
10 08:55 Calm 16.09 Overcast OVC007 19 18 94% 76.4 0.0
10 08:35 Calm 14.48 Overcast OVC004 19 18 94% 76.4 0.0
10 08:15 Calm 6.44 Fog/Mist OVC003 18 18 100% 76.38 0.0
10 07:55 Calm 3.22 Fog/Mist OVC003 18 18 100% 76.35 0.0
10 07:35 Calm 3.22 Fog/Mist OVC003 17 17 100% 76.35 0.0
10 07:15 Calm 4.02 Fog/Mist OVC003 17 17 100% 76.33 0.0
10 06:55 Calm 1.21 Light Drizzle Fog/Mist OVC002 17 17 100% 76.3 0.0
10 06:35 Calm 0.40 Drizzle Fog OVC002 17 17 100% 76.28 0.0
10 06:15 Calm 0.40 Fog OVC002 17 17 100% 76.25 0.0
10 05:55 Calm 0.40 Fog OVC002 17 17 100% 76.2 0.0
10 05:35 Calm 0.80 Fog OVC002 17 17 100% 76.2 0.0
10 05:15 Calm 1.61 Fog/Mist OVC002 17 17 100% 76.17 0.0
10 04:55 Calm 1.61 Fog/Mist OVC003 17 17 100% 76.17 0.0
10 04:35 Calm 1.21 Fog/Mist OVC002 17 17 100% 76.15 0.0
10 04:15 Calm 0.80 Fog OVC002 17 17 100% 76.15 0.0
10 03:55 Calm 0.40 Fog OVC002 18 18 100% 76.15 0.0
10 03:35 Calm 0.80 Fog OVC002 18 18 100% 76.1 0.0
10 03:15 Calm 11.27 Overcast OVC002 17 17 100% 76.1 0.0
10 02:55 Calm 6.44 Fog/Mist OVC003 17 17 100% 76.1 0.0
10 02:35 Calm 14.48 Overcast OVC003 17 16 94% 76.07 0.0
10 02:15 Calm 12.87 Overcast OVC003 16 16 100% 76.1 0.0
10 01:55 Calm 16.09 Overcast OVC004 16 16 100% 76.1 0.0
10 01:35 Calm 14.48 Overcast OVC006 15 15 100% 76.1 0.0
10 01:15 Calm 14.48 Overcast OVC007 15 15 100% 76.1 0.0
10 00:55 Calm 8.05 Fog/Mist BKN008 14 14 100% 76.12 0.0
10 00:35 Calm 12.87 Overcast OVC006 15 15 100% 76.12 0.0
10 00:15 Calm 2.41 Fog/Mist OVC008 15 15 100% 76.1 0.0
09 23:55 Calm 14.48 Partly Cloudy SCT009 15 15 100% 76.12 0.0
09 23:35 Calm 14.48 A Few Clouds FEW023 15 15 100% 76.12 0.0
09 23:15 Calm 6.44 Fog/Mist FEW023 15 15 100% 76.12 0.0
09 22:55 Calm 12.87 Fair CLR 15 15 100% 76.15 0.0
09 22:35 Calm 9.66 Fog/Mist FEW029 15 15 100% 76.15 0.0
09 22:15 Calm 14.48 Partly Cloudy SCT029 16 16 100% 76.15 0.0
09 21:55 Calm 4.02 Fog/Mist BKN030 17 16 94% 76.12 0.0
09 21:35 Calm 14.48 Fair CLR 16 16 100% 76.1 0.0
09 21:15 Calm 14.48 Fair CLR 17 17 100% 76.1 0.0
09 20:55 Calm 14.48 Fair CLR 17 17 100% 76.05 0.0
09 20:35 Calm 4.83 Fog/Mist CLR 18 17 94% 76.02 0.0
09 20:15 Calm 14.48 Fair CLR 18 18 100% 76 0.0
09 19:55 Calm 14.48 Fair CLR 19 18 94% 75.97 0.0
09 19:35 Calm 16.09 Fair CLR 20 19 94% 75.95 0.0
09 19:15 Calm 16.09 Fair CLR 20 19 94% 75.95 0.0
09 18:55 Calm 16.09 Fair CLR 21 19 88% 75.95 0.0
09 18:35 Calm 16.09 Fair CLR 22 20 88% 75.92 0.0
09 18:15 Calm 16.09 Fair CLR 22 20 88% 75.92 0.0
09 17:55 Calm 16.09 Fair CLR 22 19 83% 75.92 0.0
09 17:35 Calm 16.09 Fair CLR 23 17 69% 75.92 0.0
09 17:15 Calm 16.09 Fair CLR 23 18 74% 75.92 0.0
09 16:55 Calm 16.09 Fair CLR 23 17 69% 75.9 0.0
09 16:35 Calm 16.09 Fair CLR 23 17 69% 75.87 0.0
09 16:15 Calm 16.09 Fair CLR 23 17 69% 75.87 0.0
09 15:55 Calm 16.09 Fair CLR 23 17 69% 75.87 0.0
09 15:35 Calm 16.09 Fair CLR 23 17 69% 75.9 0.0
09 15:15 Calm 16.09 Fair CLR 23 17 69% 75.9 0.0
09 14:55 W 9 16.09 Fair CLR 23 17 69% 75.9 0.0
09 14:35 Vrbl 7 16.09 Fair CLR 23 17 69% 75.92 0.0
09 14:15 Calm 16.09 Partly Cloudy SCT021 22 17 73% 75.95 0.0
09 13:55 Calm 16.09 Partly Cloudy SCT021 22 17 73% 75.95 0.0
09 13:35 Vrbl 7 16.09 Partly Cloudy SCT021 22 17 73% 75.95 0.0
09 13:15 Calm 16.09 Partly Cloudy SCT021 22 17 73% 76 0.0
09 12:55 Vrbl 7 16.09 A Few Clouds FEW019 21 17 78% 76.02 0.0
09 12:35 Vrbl 7 16.09 Partly Cloudy SCT017 21 17 78% 76.02 0.0
09 12:15 Calm 16.09 Mostly Cloudy BKN017 21 17 78% 76 0.0
09 11:55 Vrbl 7 16.09 Mostly Cloudy BKN018 21 16 73% 76.02 0.0
09 11:35 Calm 16.09 Mostly Cloudy BKN018 21 16 73% 76.02 0.0
09 11:15 Calm 16.09 Fair CLR 20 16 78% 76.02 0.0
09 10:55 Calm 16.09 Partly Cloudy SCT016 20 16 78% 76.02 0.0
09 10:35 Vrbl 6 16.09 Overcast OVC015 20 16 78% 76.05 0.0
09 10:15 Calm 16.09 Overcast OVC013 19 16 83% 76.05 0.0
09 09:55 Calm 16.09 Overcast OVC014 18 16 88% 76.05 0.0
09 09:35 Calm 16.09 Overcast OVC011 18 16 88% 76.05 0.0
09 09:15 Calm 16.09 Overcast BKN010 OVC013 17 16 94% 76.02 0.0
09 08:55 Calm 16.09 Overcast FEW006 OVC011 17 16 94% 76.02 0.0
09 08:35 Calm 16.09 Overcast SCT005 OVC011 17 16 94% 76.02 0.0
09 08:15 Calm 14.48 Overcast BKN004 OVC015 16 16 100% 75.97 0.0
09 07:55 Calm 6.44 Fog/Mist OVC003 16 16 100% 75.97 0.0
09 07:35 Calm 4.83 Fog/Mist OVC003 16 16 100% 75.97 0.0
09 07:15 Calm 3.22 Fog/Mist OVC003 15 15 100% 76 0.0
09 06:55 Calm 0.40 Fog OVC002 15 15 100% 75.97 0.0
09 06:35 Calm 0.40 Fog OVC002 15 15 100% 75.97 0.0
09 06:15 Calm 0.80 Fog OVC002 15 15 100% 75.95 0.0
09 05:55 Calm 2.01 Fog/Mist OVC002 15 15 100% 75.95 0.0
09 05:35 Calm 2.01 Fog/Mist OVC003 15 15 100% 75.92 0.0
09 05:15 Calm 3.22 Fog/Mist OVC003 15 15 100% 75.9 0.0
09 04:55 Calm 1.61 Fog/Mist OVC003 15 15 100% 75.87 0.0
09 04:35 Calm 2.01 Fog/Mist OVC003 15 15 100% 75.84 0.0
09 04:15 Calm 2.82 Fog/Mist OVC003 15 15 100% 75.87 0.0
09 03:55 Calm 6.44 Fog/Mist OVC003 15 15 100% 75.87 0.0
09 03:35 Calm 8.05 Fog/Mist OVC003 14 14 100% 75.87 0.0
09 03:15 Calm 4.83 Fog/Mist OVC004 14 14 100% 75.9 0.0
09 02:55 Calm 9.66 Light Rain Fog/Mist OVC006 14 14 100% 75.92 0.0
09 02:35 Calm 16.09 Overcast OVC009 14 14 100% 75.97 0.0
09 02:15 Calm 16.09 Overcast BKN011 BKN016 OVC021 14 14 100% 75.92 0.0
09 01:55 Calm 16.09 Overcast FEW012 OVC023 13 13 100% 75.95 0.0
09 01:35 Calm 14.48 Overcast OVC025 13 13 100% 75.95 0.0
09 01:15 Calm 12.87 Mostly Cloudy BKN026 BKN034 12 12 100% 75.92 0.0
09 00:55 Calm 12.87 Fair CLR 12 12 100% 75.92 0.0
09 00:35 Calm 8.05 Fog/Mist CLR 12 12 100% 75.92 0.0
09 00:15 Calm 12.87 Partly Cloudy SCT037 12 12 100% 75.95 0.0
08 23:55 Calm 16.09 Mostly Cloudy BKN036 13 13 100% 76 0.0
08 23:35 Calm 2.41 Fog/Mist SCT039 SCT045 12 12 100% 76.02 0.0
08 23:15 Calm 12.87 Mostly Cloudy BKN045 12 12 100% 76 0.0
08 22:55 Calm 12.87 Mostly Cloudy BKN045 12 12 100% 76 0.0
08 22:35 Calm 14.48 Partly Cloudy SCT046 13 13 100% 75.97 0.0
08 22:15 Calm 16.09 Fair CLR 13 13 100% 75.97 0.0
08 21:55 Calm 16.09 Fair CLR 13 13 100% 76 0.0
08 21:35 Calm 16.09 Fair CLR 13 13 100% 76.02 0.0
08 21:15 Calm 16.09 Fair CLR 14 13 94% 76 0.0
08 20:55 Calm 16.09 Fair CLR 14 13 94% 75.97 0.0
08 20:35 Calm 16.09 Fair CLR 14 14 100% 76.02 0.0
08 20:15 Calm 16.09 Fair CLR 14 14 100% 76.02 0.0
08 19:55 Calm 16.09 Fair CLR 15 14 94% 76 0.0
08 19:35 Calm 16.09 Fair CLR 15 14 94% 76 0.0
08 19:15 Calm 16.09 Fair CLR 17 14 83% 76 0.0
08 18:55 Calm 16.09 Fair CLR 17 14 83% 76.02 0.0
08 18:35 Calm 16.09 Fair CLR 18 13 73% 76.05 0.0
08 18:15 Calm 16.09 Fair CLR 18 13 73% 76.05 0.0
08 17:55 Calm 16.09 Fair CLR 19 13 68% 76.1 0.0
08 17:35 Vrbl 7 16.09 Fair CLR 19 13 68% 76.07 0.0
08 17:15 Calm 16.09 Fair CLR 19 13 68% 76.1 0.0
08 16:55 Vrbl 7 16.09 Fair CLR 19 12 64% 76.05 0.0
08 16:35 Vrbl 6 16.09 Fair CLR 19 12 64% 76.07 0.0
08 16:15 Calm 16.09 Fair CLR 20 12 60% 76.07 0.0
08 15:55 Calm 16.09 Fair CLR 20 11 56% 76.1 0.0
08 15:35 SE 6 16.09 Fair CLR 20 12 60% 76.07 0.0
08 15:15 Calm 16.09 Fair CLR 21 11 53% 76.12 0.0
08 14:55 Vrbl 7 16.09 Fair CLR 21 10 50% 76.12 0.0
08 14:35 Vrbl 7 16.09 Fair CLR 20 10 53% 76.12 0.0
08 14:15 Vrbl 9 16.09 Fair CLR 21 10 50% 76.15 0.0
08 13:55 Calm 16.09 Fair CLR 20 11 56% 76.15 0.0
08 13:35 Vrbl 6 G 19 16.09 Fair CLR 20 11 56% 76.15 0.0
08 13:15 SE 7 16.09 Fair CLR 20 10 53% 76.17 0.0
08 12:55 E 7 16.09 Fair CLR 20 10 53% 76.2 0.0
08 12:35 SE 7 16.09 Fair CLR 20 10 53% 76.23 0.0
08 12:15 Calm 16.09 Fair CLR 20 9 49% 76.28 0.0
08 11:55 Vrbl 7 16.09 Fair CLR 21 9 46% 76.3 0.0
08 11:35 Calm 16.09 Fair CLR 21 9 46% 76.3 0.0
08 11:15 Vrbl 7 16.09 Fair CLR 20 10 53% 76.33 0.0
08 10:55 Vrbl 9 16.09 Fair CLR 20 9 49% 76.35 0.0
08 10:35 Vrbl 9 16.09 Fair CLR 19 9 52% 76.33 0.0
08 10:15 E 13 16.09 Fair CLR 19 8 49% 76.35 0.0
08 09:55 Vrbl 9 G 19 16.09 Fair CLR 19 9 52% 76.38 0.0
08 09:35 E 13 16.09 Fair CLR 18 9 56% 76.38 0.0
08 09:15 E 13 16.09 Fair CLR 17 10 64% 76.4 0.0
08 08:55 E 9 16.09 Fair CLR 17 11 68% 76.43 0.0
08 08:35 Calm 16.09 Fair CLR 15 11 77% 76.4 0.0
08 08:15 Calm 16.09 Fair CLR 14 11 82% 76.4 0.0
08 07:55 Calm 16.09 Fair CLR 13 11 88% 76.4 0.0
08 07:35 Calm 16.09 Fair CLR 12 11 94% 76.4 0.0
08 07:15 Calm 16.09 Fair CLR 11 11 100% 76.4 0.0
08 06:55 Calm 14.48 Fair CLR 10 10 100% 76.38 0.0
08 06:35 Calm 14.48 Fair CLR 9 9 100% 76.35 0.0
08 06:15 Calm 11.27 Fair CLR 9 9 100% 76.33 0.0
08 05:55 Calm 12.87 Fair CLR 9 9 100% 76.3 0.0
08 05:35 Calm 14.48 Fair CLR 9 9 100% 76.28 0.0
08 05:15 Calm 14.48 Fair CLR 10 10 100% 76.28 0.0
08 04:55 Calm 12.87 Fair CLR 10 10 100% 76.28 0.0
08 04:35 Calm 14.48 Fair CLR 10 10 100% 76.23 0.0
08 04:15 Calm 16.09 Fair CLR 10 10 100% 76.2 0.0
08 03:55 Calm 16.09 Fair CLR 10 10 100% 76.2 0.0
08 03:35 Calm 14.48 Fair CLR 10 10 100% 76.2 0.0
08 03:15 Calm 12.87 Fair CLR 10 10 100% 76.2 0.0
08 02:55 Calm 14.48 Fair CLR 10 10 100% 76.2 0.0
08 02:35 Calm 16.09 Fair CLR 10 10 100% 76.17 0.0
08 02:15 Calm 16.09 Fair CLR 11 11 100% 76.2 0.0
08 01:35 Calm 16.09 Fair CLR 13 11 88% 76.23 0.0
08 01:15 Calm 16.09 Fair CLR 12 12 100% 76.23 0.0
08 00:55 Calm 14.48 Fair CLR 11 11 100% 76.25 0.0
08 00:35 Calm 8.05 Fog/Mist CLR 12 12 100% 76.25 0.0
08 00:15 Calm 14.48 Fair CLR 12 12 100% 76.25 0.0
07 23:55 Calm 16.09 Fair CLR 12 12 100% 76.25 0.0
07 23:35 Calm 14.48 Fair CLR 12 12 100% 76.28 0.0
07 23:15 Calm 16.09 Fair CLR 12 12 100% 76.28 0.0
07 22:55 Calm 16.09 Fair CLR 12 12 100% 76.28 0.0
07 22:35 Calm 16.09 Fair CLR 13 13 100% 76.28 0.0
07 22:15 Calm 12.87 Fair CLR 13 13 100% 76.25 0.0
07 21:55 Calm 16.09 Fair CLR 13 13 100% 76.25 0.0
07 21:35 Calm 16.09 Fair CLR 13 13 100% 76.25 0.0
07 21:15 Calm 16.09 Fair CLR 13 13 100% 76.23 0.0
07 20:55 Calm 16.09 Fair CLR 14 13 94% 76.23 0.0
07 20:35 Calm 16.09 Fair CLR 14 14 100% 76.2 0.0
07 20:15 Calm 16.09 Fair CLR 14 14 100% 76.2 0.0
07 19:55 Calm 16.09 Fair CLR 15 14 94% 76.17 0.0
07 19:35 Calm 16.09 Fair CLR 16 14 88% 76.17 0.0
07 19:15 Calm 16.09 Fair CLR 17 13 77% 76.17 0.0
07 18:55 Calm 16.09 Partly Cloudy SCT047 18 12 68% 76.15 0.0
07 18:35 Vrbl 7 16.09 Mostly Cloudy BKN047 19 12 64% 76.15 0.0
07 18:15 Vrbl 7 16.09 Mostly Cloudy BKN047 20 12 60% 76.15 0.0
07 17:55 N 7 16.09 Mostly Cloudy BKN047 20 12 60% 76.12 0.0
Date Time (cdt) Wind (kph) Vis. (km) Weather Sky Cond. Air Dwpt Max. Min. Relative Humidity Wind Chill (°C) Heat Index (°C) altimeter (cm) sea level (mb) 1 hr 3 hr 6 hr
6 hour
Temperature (ºC) Pressure Precipitation (cm)